createdAt,value
2022-12-06T00:00:27.045Z,1.45
2022-12-06T00:02:55.148Z,1.80
2022-12-06T00:05:23.211Z,1.00
2022-12-06T00:07:51.478Z,1.63
2022-12-06T00:10:19.560Z,1.45
2022-12-06T00:12:47.809Z,1.40
2022-12-06T00:15:17.445Z,2.45
2022-12-06T00:17:45.495Z,0.90
2022-12-06T00:20:13.636Z,1.17
2022-12-06T00:22:45.416Z,1.63
2022-12-06T00:25:13.434Z,1.38
2022-12-06T00:27:41.467Z,1.10
2022-12-06T00:30:10.760Z,1.30
2022-12-06T00:32:40.146Z,1.42
2022-12-06T00:35:08.734Z,1.73
2022-12-06T00:37:37.493Z,1.27
2022-12-06T00:40:06.227Z,1.38
2022-12-06T00:42:34.397Z,1.10
2022-12-06T00:45:02.503Z,2.03
2022-12-06T00:47:30.620Z,1.15
2022-12-06T00:50:00.226Z,1.00
2022-12-06T00:52:28.706Z,1.92
2022-12-06T00:54:56.850Z,0.88
2022-12-06T00:57:24.961Z,1.23
2022-12-06T00:59:53.105Z,1.55
2022-12-06T01:02:21.144Z,1.55
2022-12-06T01:04:49.642Z,2.25
2022-12-06T01:09:47.042Z,0.13
2022-12-06T01:12:14.860Z,1.52
2022-12-06T01:14:42.715Z,0.90
2022-12-06T01:17:10.580Z,0.90
2022-12-06T01:19:38.279Z,0.60
2022-12-06T01:22:06.258Z,1.98
2022-12-06T01:24:35.368Z,1.08
2022-12-06T01:27:03.143Z,0.70
2022-12-06T01:29:31.058Z,1.42
2022-12-06T01:31:58.800Z,0.90
2022-12-06T01:34:26.511Z,0.90
2022-12-06T01:36:54.283Z,0.70
2022-12-06T01:39:22.203Z,0.60
2022-12-06T01:41:51.337Z,1.48
2022-12-06T01:44:41.873Z,0.85
2022-12-06T01:47:13.555Z,3.70
2022-12-06T01:49:44.522Z,1.20
2022-12-06T01:52:14.553Z,2.40
2022-12-06T01:54:42.385Z,1.35
2022-12-06T01:57:14.850Z,1.67
2022-12-06T01:59:43.346Z,0.80
2022-12-06T02:04:40.142Z,0.70
2022-12-06T02:07:08.974Z,1.02
2022-12-06T02:09:38.030Z,1.60
2022-12-06T02:12:12.345Z,1.05
2022-12-06T02:14:44.694Z,1.33
2022-12-06T02:17:27.661Z,1.25
2022-12-06T02:20:19.840Z,0.98
2022-12-06T02:23:14.804Z,1.42
2022-12-06T02:25:55.046Z,1.48
2022-12-06T02:28:53.130Z,1.00
2022-12-06T02:31:28.449Z,1.85
2022-12-06T02:34:02.958Z,2.25
2022-12-06T02:36:38.921Z,0.90
2022-12-06T02:39:10.814Z,0.85
2022-12-06T02:41:42.293Z,0.70
2022-12-06T02:44:19.591Z,0.98
2022-12-06T02:46:52.308Z,1.08
2022-12-06T02:49:23.653Z,1.00
2022-12-06T02:51:54.631Z,1.15
2022-12-06T02:54:24.911Z,1.20
2022-12-06T02:56:52.723Z,1.25
2022-12-06T02:59:21.303Z,1.30
2022-12-06T03:01:53.360Z,0.90
2022-12-06T03:04:34.505Z,0.80
2022-12-06T03:07:14.442Z,1.75
2022-12-06T03:09:53.819Z,0.65
2022-12-06T03:12:32.154Z,1.30
2022-12-06T03:15:08.386Z,2.00
2022-12-06T03:17:43.576Z,1.48
2022-12-06T03:20:15.016Z,0.90
2022-12-06T03:22:48.064Z,1.25
2022-12-06T03:25:17.547Z,0.75
2022-12-06T03:27:47.983Z,0.82
2022-12-06T03:30:17.183Z,0.70
2022-12-06T03:32:49.440Z,0.77
2022-12-06T03:35:22.962Z,1.35
2022-12-06T03:37:56.399Z,1.10
2022-12-06T03:40:28.187Z,0.57
2022-12-06T03:42:58.513Z,0.82
2022-12-06T03:45:31.269Z,0.93
2022-12-06T03:48:08.130Z,1.63
2022-12-06T03:50:40.305Z,0.98
2022-12-06T03:53:08.407Z,0.80
2022-12-06T03:55:36.512Z,0.70
2022-12-06T03:58:04.401Z,1.67
2022-12-06T04:00:32.369Z,0.88
2022-12-06T04:03:01.655Z,1.13
2022-12-06T04:05:29.618Z,4.50
2022-12-06T04:07:57.492Z,0.80
2022-12-06T04:10:25.286Z,1.15
2022-12-06T04:13:02.024Z,1.48
2022-12-06T04:15:31.702Z,0.77
2022-12-06T04:18:16.129Z,0.77
2022-12-06T04:21:04.874Z,1.10
2022-12-06T04:23:35.172Z,0.80
2022-12-06T04:26:03.307Z,0.65
2022-12-06T04:28:48.631Z,0.80
2022-12-06T04:31:33.977Z,1.00
2022-12-06T04:34:20.670Z,1.20
2022-12-06T04:37:06.021Z,1.05
2022-12-06T04:39:34.512Z,0.88
2022-12-06T04:44:48.052Z,0.55
2022-12-06T04:47:16.107Z,0.80
2022-12-06T04:49:45.458Z,1.40
2022-12-06T04:52:15.729Z,0.85
2022-12-06T04:54:43.992Z,0.70
2022-12-06T04:57:13.354Z,0.88
2022-12-06T04:59:42.903Z,0.70
2022-12-06T05:02:13.814Z,1.45
2022-12-06T05:04:41.654Z,1.02
2022-12-06T05:07:11.760Z,1.42
2022-12-06T05:09:40.003Z,0.65
2022-12-06T05:12:08.396Z,1.65
2022-12-06T05:14:36.338Z,0.85
2022-12-06T05:17:04.412Z,1.92
2022-12-06T05:19:32.218Z,1.13
2022-12-06T05:22:00.082Z,0.75
2022-12-06T05:24:29.304Z,2.05
2022-12-06T05:26:57.258Z,1.23
2022-12-06T05:29:25.218Z,0.80
2022-12-06T05:31:53.027Z,1.08
2022-12-06T05:34:20.889Z,1.38
2022-12-06T05:36:48.926Z,1.73
2022-12-06T05:39:17.804Z,1.00
2022-12-06T05:41:46.907Z,2.35
2022-12-06T05:44:14.719Z,2.58
2022-12-06T05:46:42.576Z,1.55
2022-12-06T05:49:10.506Z,1.48
2022-12-06T05:51:38.426Z,1.02
2022-12-06T05:54:06.770Z,0.88
2022-12-06T05:56:35.399Z,0.60
2022-12-06T05:59:04.643Z,1.08
2022-12-06T06:01:32.995Z,1.08
2022-12-06T06:04:01.709Z,1.55
2022-12-06T06:06:29.826Z,1.25
2022-12-06T06:08:57.748Z,0.88
2022-12-06T06:11:25.521Z,0.77
2022-12-06T06:13:54.489Z,1.33
2022-12-06T06:16:23.748Z,0.77
2022-12-06T06:18:51.662Z,1.25
2022-12-06T06:21:19.677Z,1.08
2022-12-06T06:23:47.473Z,0.80
2022-12-06T06:26:15.463Z,0.68
2022-12-06T06:28:43.263Z,0.30
2022-12-06T06:31:11.162Z,1.70
2022-12-06T06:33:40.374Z,0.60
2022-12-06T06:36:09.058Z,0.35
2022-12-06T06:38:36.868Z,1.00
2022-12-06T06:41:05.536Z,0.17
2022-12-06T06:43:33.784Z,1.10
2022-12-06T06:46:03.123Z,0.57
2022-12-06T06:48:33.312Z,0.57
2022-12-06T06:51:06.316Z,0.43
2022-12-06T06:53:34.433Z,0.25
2022-12-06T06:56:02.677Z,0.90
2022-12-06T06:58:30.474Z,0.93
2022-12-06T07:00:59.886Z,0.50
2022-12-06T07:03:28.966Z,0.88
2022-12-06T07:06:01.052Z,0.45
2022-12-06T07:08:31.999Z,0.68
2022-12-06T07:11:00.338Z,0.30
2022-12-06T07:13:29.848Z,1.02
2022-12-06T07:15:58.934Z,0.43
2022-12-06T07:18:27.171Z,0.55
2022-12-06T07:21:01.381Z,0.30
2022-12-06T07:23:31.023Z,0.50
2022-12-06T07:26:03.455Z,0.55
2022-12-06T07:28:31.532Z,0.55
2022-12-06T07:30:59.401Z,1.45
2022-12-06T07:33:27.220Z,2.50
2022-12-06T07:36:12.953Z,0.57
2022-12-06T07:38:43.670Z,1.13
2022-12-06T07:41:31.528Z,0.28
2022-12-06T07:44:17.739Z,0.38
2022-12-06T07:46:45.808Z,0.80
2022-12-06T07:49:13.810Z,0.57
2022-12-06T07:51:41.709Z,0.93
2022-12-06T07:54:10.933Z,2.28
2022-12-06T07:56:38.765Z,1.55
2022-12-06T07:59:07.010Z,1.20
2022-12-06T08:01:35.159Z,0.85
2022-12-06T08:04:03.930Z,1.08
2022-12-06T08:06:33.130Z,0.40
2022-12-06T08:09:01.271Z,4.00
2022-12-06T08:11:30.458Z,1.20
2022-12-06T08:13:58.484Z,0.47
2022-12-06T08:16:26.353Z,0.75
2022-12-06T08:18:54.205Z,1.65
2022-12-06T08:21:22.067Z,2.47
2022-12-06T08:23:49.897Z,2.28
2022-12-06T08:26:18.775Z,1.13
2022-12-06T08:28:48.487Z,2.35
2022-12-06T08:31:19.047Z,4.07
2022-12-06T08:33:47.543Z,2.28
2022-12-06T08:36:18.073Z,1.15
2022-12-06T08:38:47.112Z,2.78
2022-12-06T08:41:33.002Z,1.52
2022-12-06T08:44:03.507Z,1.05
2022-12-06T08:46:32.360Z,0.82
2022-12-06T08:49:00.442Z,0.90
2022-12-06T08:51:29.237Z,1.13
2022-12-06T08:53:57.944Z,1.17
2022-12-06T08:56:26.326Z,1.77
2022-12-06T08:58:54.945Z,1.77
2022-12-06T09:01:25.999Z,0.85
2022-12-06T09:03:54.018Z,2.63
2022-12-06T09:06:23.149Z,1.05
2022-12-06T09:08:51.009Z,1.40
2022-12-06T09:11:20.031Z,2.35
2022-12-06T09:13:47.978Z,1.13
2022-12-06T09:16:17.920Z,0.80
2022-12-06T09:18:48.205Z,3.28
2022-12-06T09:21:18.405Z,1.27
2022-12-06T09:23:46.663Z,1.75
2022-12-06T09:26:14.985Z,1.23
2022-12-06T09:28:44.608Z,1.50
2022-12-06T09:31:12.662Z,2.53
2022-12-06T09:33:40.499Z,1.35
2022-12-06T09:36:15.953Z,1.20
2022-12-06T09:38:46.800Z,0.98
2022-12-06T09:41:41.689Z,1.00
2022-12-06T09:44:24.751Z,1.25
2022-12-06T09:47:07.673Z,1.52
2022-12-06T09:49:46.402Z,1.15
2022-12-06T09:52:33.652Z,1.23
2022-12-06T09:55:19.411Z,1.48
2022-12-06T09:57:54.651Z,0.85
2022-12-06T10:00:24.953Z,2.70
2022-12-06T10:03:35.427Z,0.57
2022-12-06T10:06:05.535Z,1.40
2022-12-06T10:08:51.288Z,1.50
2022-12-06T10:11:32.522Z,1.15
2022-12-06T10:14:10.852Z,1.52
2022-12-06T10:16:53.274Z,0.90
2022-12-06T10:19:34.272Z,2.05
2022-12-06T10:22:13.432Z,0.75
2022-12-06T10:24:56.689Z,1.58
2022-12-06T10:27:31.134Z,0.60
2022-12-06T10:30:02.770Z,0.88
2022-12-06T10:32:47.167Z,0.80
2022-12-06T10:35:19.714Z,0.65
2022-12-06T10:38:01.060Z,1.52
2022-12-06T10:40:37.247Z,0.75
2022-12-06T10:43:14.264Z,0.98
2022-12-06T10:46:08.975Z,1.05
2022-12-06T10:48:43.945Z,0.90
2022-12-06T10:51:19.872Z,0.40
2022-12-06T10:53:52.380Z,0.47
2022-12-06T10:56:27.302Z,0.63
2022-12-06T11:01:28.373Z,0.30
2022-12-06T11:04:01.545Z,0.82
2022-12-06T11:06:35.318Z,0.30
2022-12-06T11:09:20.631Z,0.50
2022-12-06T11:11:51.507Z,0.82
2022-12-06T11:14:26.794Z,1.00
2022-12-06T11:16:58.103Z,0.82
2022-12-06T11:19:34.576Z,0.50
2022-12-06T11:22:13.610Z,0.88
2022-12-06T11:24:48.445Z,0.55
2022-12-06T11:29:51.806Z,0.30
2022-12-06T11:32:20.391Z,0.35
2022-12-06T11:37:20.261Z,0.70
2022-12-06T11:39:50.683Z,0.38
2022-12-06T11:42:26.567Z,0.45
2022-12-06T11:44:59.044Z,0.63
2022-12-06T11:47:27.594Z,0.50
2022-12-06T11:49:56.404Z,0.30
2022-12-06T11:52:31.840Z,0.57
2022-12-06T11:55:03.240Z,0.45
2022-12-06T11:57:38.614Z,0.80
2022-12-06T12:00:14.745Z,0.60
2022-12-06T12:02:44.788Z,0.45
2022-12-06T12:05:19.986Z,0.95
2022-12-06T12:07:51.892Z,1.30
2022-12-06T12:10:33.500Z,0.50
2022-12-06T12:13:39.504Z,1.45
2022-12-06T12:16:14.711Z,0.28
2022-12-06T12:18:52.611Z,0.60
2022-12-06T12:21:34.409Z,0.73
2022-12-06T12:24:02.429Z,1.10
2022-12-06T12:26:38.298Z,1.48
2022-12-06T12:29:16.618Z,0.60
2022-12-06T12:31:53.377Z,0.73
2022-12-06T12:34:23.364Z,0.65
2022-12-06T12:36:54.439Z,1.02
2022-12-06T12:39:26.306Z,0.63
2022-12-06T12:41:54.539Z,0.88
2022-12-06T12:44:37.495Z,0.68
2022-12-06T12:47:17.650Z,0.38
2022-12-06T12:49:59.321Z,0.40
2022-12-06T12:52:31.002Z,1.15
2022-12-06T12:55:01.810Z,1.02
2022-12-06T12:57:30.002Z,1.05
2022-12-06T12:59:59.442Z,0.43
2022-12-06T13:02:30.566Z,0.70
2022-12-06T13:05:31.467Z,0.65
2022-12-06T13:07:53.723Z,0.55
2022-12-06T13:10:30.575Z,0.80
2022-12-06T13:13:02.852Z,0.60
2022-12-06T13:15:36.822Z,1.05
2022-12-06T13:18:11.603Z,0.60
2022-12-06T13:20:40.576Z,0.30
2022-12-06T13:23:13.740Z,0.30
2022-12-06T13:25:44.187Z,0.70
2022-12-06T13:28:18.660Z,0.43
2022-12-06T13:30:51.961Z,0.80
2022-12-06T13:33:24.098Z,2.58
2022-12-06T13:35:57.509Z,0.50
2022-12-06T13:38:30.259Z,1.17
2022-12-06T13:40:58.568Z,0.90
2022-12-06T13:43:59.419Z,0.28
2022-12-06T13:46:33.496Z,0.57
2022-12-06T13:49:24.800Z,0.60
2022-12-06T13:51:52.769Z,1.20
2022-12-06T13:54:32.285Z,0.60
2022-12-06T13:57:03.661Z,0.90
2022-12-06T13:59:41.613Z,0.90
2022-12-06T14:02:52.104Z,1.02
2022-12-06T14:06:15.703Z,0.90
2022-12-06T14:08:47.510Z,0.57
2022-12-06T14:11:19.508Z,1.30
2022-12-06T14:13:49.711Z,6.88
2022-12-06T14:16:23.330Z,3.15
2022-12-06T14:18:52.021Z,1.73
2022-12-06T14:21:23.786Z,1.00
2022-12-06T14:23:53.716Z,0.80
2022-12-06T14:26:24.742Z,0.73
2022-12-06T14:28:55.686Z,1.02
2022-12-06T14:31:29.536Z,1.00
2022-12-06T14:33:58.380Z,5.95
2022-12-06T14:36:30.416Z,0.65
2022-12-06T14:39:07.908Z,2.72
2022-12-06T14:41:56.192Z,1.88
2022-12-06T14:44:30.504Z,4.90
2022-12-06T14:46:59.379Z,1.05
2022-12-06T14:49:46.965Z,0.82
2022-12-06T14:52:20.355Z,3.20
2022-12-06T14:54:50.285Z,0.60
2022-12-06T14:57:26.232Z,0.77
2022-12-06T15:00:25.696Z,1.33
2022-12-06T15:03:18.749Z,0.43
2022-12-06T15:05:49.696Z,0.60
2022-12-06T15:08:36.540Z,0.40
2022-12-06T15:11:36.811Z,0.50
2022-12-06T15:14:18.748Z,0.88
2022-12-06T15:16:56.001Z,0.60
2022-12-06T15:19:24.464Z,0.40
2022-12-06T15:21:52.863Z,0.40
2022-12-06T15:24:22.371Z,1.73
2022-12-06T15:26:51.939Z,0.40
2022-12-06T15:29:20.432Z,0.35
2022-12-06T15:34:26.887Z,0.70
2022-12-06T15:37:15.280Z,0.45
2022-12-06T15:39:44.229Z,0.57
2022-12-06T15:42:21.284Z,0.50
2022-12-06T15:44:50.285Z,0.50
2022-12-06T15:47:19.643Z,0.80
2022-12-06T15:49:49.037Z,1.80
2022-12-06T15:52:18.029Z,0.50
2022-12-06T15:54:46.314Z,0.60
2022-12-06T15:57:16.069Z,0.85
2022-12-06T15:59:43.977Z,0.55
2022-12-06T16:02:15.926Z,0.52
2022-12-06T16:04:44.297Z,0.47
2022-12-06T16:07:18.570Z,0.90
2022-12-06T16:09:47.012Z,0.90
2022-12-06T16:12:16.290Z,0.40
2022-12-06T16:14:44.198Z,0.60
2022-12-06T16:17:12.054Z,0.77
2022-12-06T16:19:57.174Z,0.82
2022-12-06T16:22:45.151Z,0.57
2022-12-06T16:25:11.969Z,0.70
2022-12-06T16:27:41.210Z,0.40
2022-12-06T16:30:10.714Z,0.50
2022-12-06T16:32:38.632Z,0.45
2022-12-06T16:35:06.660Z,2.92
2022-12-06T16:37:34.500Z,0.98
2022-12-06T16:40:02.454Z,1.17
2022-12-06T16:42:30.291Z,0.80
2022-12-06T16:44:59.858Z,1.05
2022-12-06T16:49:54.702Z,0.65
2022-12-06T16:52:22.561Z,0.80
2022-12-06T16:54:50.491Z,0.57
2022-12-06T16:57:19.588Z,1.10
2022-12-06T16:59:47.589Z,3.08
2022-12-06T17:02:26.783Z,0.70
2022-12-06T17:04:55.134Z,0.57
2022-12-06T17:07:22.916Z,0.88
2022-12-06T17:09:50.690Z,0.88
2022-12-06T17:12:18.801Z,1.08
2022-12-06T17:14:46.934Z,0.88
2022-12-06T17:17:16.074Z,1.13
2022-12-06T17:19:46.128Z,4.15
2022-12-06T17:22:16.720Z,3.33
2022-12-06T17:24:44.737Z,1.13
2022-12-06T17:27:14.967Z,1.48
2022-12-06T17:29:43.614Z,3.30
2022-12-06T17:32:11.896Z,1.40
2022-12-06T17:34:40.763Z,1.10
2022-12-06T17:37:10.198Z,1.63
2022-12-06T17:39:38.324Z,3.35
2022-12-06T17:42:24.287Z,2.90
2022-12-06T17:44:52.444Z,9.80
2022-12-06T17:47:22.142Z,12.70
2022-12-06T17:49:50.188Z,4.70
2022-12-06T17:52:19.783Z,14.93
2022-12-06T17:54:47.576Z,10.57
2022-12-06T17:57:18.380Z,10.57
2022-12-06T17:59:47.646Z,4.90
2022-12-06T18:02:18.461Z,2.78
2022-12-06T18:04:48.275Z,5.28
2022-12-06T18:07:16.977Z,3.83
2022-12-06T18:09:46.591Z,2.10
2022-12-06T18:12:15.947Z,4.18
2022-12-06T18:14:43.807Z,5.07
2022-12-06T18:17:12.233Z,1.25
2022-12-06T18:19:41.473Z,1.77
2022-12-06T18:22:09.652Z,6.43
2022-12-06T18:24:37.642Z,13.70
2022-12-06T18:27:07.810Z,24.83
2022-12-06T18:29:36.015Z,19.38
2022-12-06T18:32:04.368Z,30.38
2022-12-06T18:34:32.703Z,11.07
2022-12-06T18:37:00.759Z,4.55
2022-12-06T18:39:28.584Z,2.22
2022-12-06T18:41:57.094Z,2.60
2022-12-06T18:44:26.700Z,2.25
2022-12-06T18:46:54.646Z,2.10
2022-12-06T18:49:22.620Z,2.58
2022-12-06T18:51:50.416Z,1.95
2022-12-06T18:54:18.344Z,1.95
2022-12-06T18:56:46.372Z,0.75
2022-12-06T18:59:14.261Z,2.17
2022-12-06T19:01:43.493Z,1.13
2022-12-06T19:04:14.992Z,2.95
2022-12-06T19:06:44.507Z,3.47
2022-12-06T19:09:15.213Z,2.10
2022-12-06T19:11:45.824Z,2.03
2022-12-06T19:14:14.474Z,1.02
2022-12-06T19:19:16.526Z,1.40
2022-12-06T19:21:45.477Z,2.05
2022-12-06T19:26:41.946Z,0.38
2022-12-06T19:29:10.119Z,1.63
2022-12-06T19:31:38.166Z,0.80
2022-12-06T19:34:07.473Z,0.50
2022-12-06T19:36:35.617Z,1.05
2022-12-06T19:39:06.002Z,0.77
2022-12-06T19:41:54.551Z,1.10
2022-12-06T19:44:21.609Z,0.40
2022-12-06T19:46:49.547Z,0.80
2022-12-06T19:49:23.118Z,0.77
2022-12-06T19:51:51.763Z,0.55
2022-12-06T19:54:22.264Z,1.30
2022-12-06T19:56:51.245Z,0.70
2022-12-06T19:59:19.559Z,0.55
2022-12-06T20:01:48.727Z,0.98
2022-12-06T20:04:20.223Z,1.02
2022-12-06T20:06:48.452Z,0.73
2022-12-06T20:09:17.054Z,2.72
2022-12-06T20:14:35.326Z,1.08
2022-12-06T20:17:03.877Z,0.75
2022-12-06T20:19:33.903Z,3.42
2022-12-06T20:22:02.091Z,0.70
2022-12-06T20:24:29.978Z,1.58
2022-12-06T20:26:57.950Z,0.95
2022-12-06T20:29:29.959Z,0.98
2022-12-06T20:31:59.472Z,1.10
2022-12-06T20:34:29.340Z,1.55
2022-12-06T20:36:58.580Z,1.02
2022-12-06T20:39:28.655Z,0.68
2022-12-06T20:41:56.604Z,1.13
2022-12-06T20:44:24.764Z,1.13
2022-12-06T20:46:54.167Z,0.30
2022-12-06T20:49:22.177Z,0.60
2022-12-06T20:51:53.167Z,0.68
2022-12-06T20:54:24.260Z,0.77
2022-12-06T20:56:53.601Z,0.25
2022-12-06T20:59:21.756Z,0.65
2022-12-06T21:01:50.005Z,0.55
2022-12-06T21:04:18.187Z,0.93
2022-12-06T21:06:46.309Z,0.88
2022-12-06T21:09:14.334Z,0.88
2022-12-06T21:11:43.553Z,0.70
2022-12-06T21:14:13.390Z,0.63
2022-12-06T21:16:42.219Z,0.80
2022-12-06T21:19:13.113Z,0.70
2022-12-06T21:21:42.805Z,0.30
2022-12-06T21:24:13.586Z,1.27
2022-12-06T21:26:41.684Z,0.60
2022-12-06T21:29:16.073Z,1.98
2022-12-06T21:31:43.973Z,0.75
2022-12-06T21:34:12.514Z,3.88
2022-12-06T21:39:08.502Z,1.02
2022-12-06T21:41:36.237Z,0.30
2022-12-06T21:44:04.109Z,0.20
2022-12-06T21:46:33.671Z,0.20
2022-12-06T21:49:01.745Z,0.38
2022-12-06T21:51:31.657Z,0.40
2022-12-06T21:54:01.571Z,0.57
2022-12-06T21:56:33.920Z,0.30
2022-12-06T21:59:02.290Z,0.47
2022-12-06T22:01:32.355Z,0.15
2022-12-06T22:04:04.520Z,0.98
2022-12-06T22:06:33.589Z,0.38
2022-12-06T22:09:03.943Z,0.40
2022-12-06T22:11:32.288Z,0.45
2022-12-06T22:14:01.478Z,1.00
2022-12-06T22:16:29.943Z,0.25
2022-12-06T22:21:30.390Z,0.00
2022-12-06T22:23:59.123Z,0.32
2022-12-06T22:26:29.303Z,0.28
2022-12-06T22:28:58.802Z,0.30
2022-12-06T22:31:28.488Z,0.20
2022-12-06T22:33:57.737Z,1.50
2022-12-06T22:36:27.981Z,0.35
2022-12-06T22:38:57.710Z,0.10
2022-12-06T22:41:26.859Z,0.05
2022-12-06T22:43:56.646Z,1.23
2022-12-06T22:46:26.416Z,0.20
2022-12-06T22:48:55.444Z,0.30
2022-12-06T22:51:26.817Z,0.47
2022-12-06T22:53:56.373Z,0.43
2022-12-06T22:56:25.112Z,1.27
2022-12-06T22:58:53.186Z,1.75
2022-12-06T23:01:23.212Z,4.05
2022-12-06T23:03:53.783Z,0.50
2022-12-06T23:06:23.869Z,1.17
2022-12-06T23:08:53.565Z,3.40
2022-12-06T23:11:23.558Z,1.20
2022-12-06T23:13:51.612Z,1.20
2022-12-06T23:16:21.346Z,0.70
2022-12-06T23:18:49.558Z,0.40
2022-12-06T23:21:19.309Z,1.15
2022-12-06T23:23:49.565Z,0.60
2022-12-06T23:26:20.440Z,1.80
2022-12-06T23:28:48.691Z,0.50
2022-12-06T23:31:18.746Z,0.40
2022-12-06T23:33:47.370Z,0.20
2022-12-06T23:38:44.642Z,0.40
2022-12-06T23:41:14.474Z,0.30
2022-12-06T23:43:44.006Z,0.40
2022-12-06T23:46:18.971Z,0.30
2022-12-06T23:48:49.755Z,2.53
2022-12-06T23:51:19.109Z,0.50
2022-12-06T23:53:50.228Z,0.15
2022-12-06T23:56:20.004Z,0.20
2022-12-06T23:58:50.274Z,0.32
